createdAt,value
2023-05-10T00:00:14.271Z,2.50
2023-05-10T00:02:36.192Z,2.37
2023-05-10T00:04:57.481Z,2.20
2023-05-10T00:07:20.420Z,2.13
2023-05-10T00:09:41.823Z,2.10
2023-05-10T00:12:03.148Z,2.10
2023-05-10T00:14:24.433Z,1.80
2023-05-10T00:16:46.215Z,1.80
2023-05-10T00:19:07.529Z,1.80
2023-05-10T00:21:29.351Z,1.73
2023-05-10T00:23:52.044Z,1.80
2023-05-10T00:26:13.009Z,1.90
2023-05-10T00:28:34.296Z,1.83
2023-05-10T00:30:55.709Z,2.00
2023-05-10T00:33:16.986Z,1.63
2023-05-10T00:35:38.829Z,2.43
2023-05-10T00:38:00.386Z,2.20
2023-05-10T00:40:22.902Z,2.17
2023-05-10T00:42:44.146Z,2.20
2023-05-10T00:45:05.976Z,2.10
2023-05-10T00:47:27.650Z,2.33
2023-05-10T00:49:48.861Z,2.13
2023-05-10T00:52:10.425Z,1.33
2023-05-10T00:54:32.096Z,1.73
2023-05-10T00:56:54.825Z,1.10
2023-05-10T00:59:16.795Z,1.00
2023-05-10T01:01:38.320Z,0.90
2023-05-10T01:04:00.195Z,1.10
2023-05-10T01:06:21.941Z,1.03
2023-05-10T01:08:43.330Z,0.87
2023-05-10T01:11:04.937Z,1.10
2023-05-10T01:13:32.527Z,1.00
2023-05-10T01:15:54.242Z,1.10
2023-05-10T01:18:15.666Z,1.20
2023-05-10T01:20:42.283Z,0.83
2023-05-10T01:23:12.800Z,0.87
2023-05-10T01:25:48.632Z,0.90
2023-05-10T01:28:34.000Z,1.00
2023-05-10T01:31:05.130Z,0.80
2023-05-10T01:33:29.051Z,1.00
2023-05-10T01:35:54.478Z,0.83
2023-05-10T01:38:18.481Z,0.80
2023-05-10T01:40:42.092Z,0.70
2023-05-10T01:43:04.606Z,0.60
2023-05-10T01:45:29.332Z,0.73
2023-05-10T01:47:53.389Z,0.80
2023-05-10T01:50:19.329Z,0.80
2023-05-10T01:52:43.069Z,0.70
2023-05-10T01:55:08.534Z,0.57
2023-05-10T01:57:32.724Z,0.83
2023-05-10T01:59:54.358Z,1.00
2023-05-10T02:02:16.102Z,0.80
2023-05-10T02:04:39.207Z,0.70
2023-05-10T02:07:02.146Z,0.87
2023-05-10T02:09:23.714Z,0.67
2023-05-10T02:11:45.668Z,0.67
2023-05-10T02:14:07.781Z,0.53
2023-05-10T02:16:31.785Z,0.83
2023-05-10T02:18:54.240Z,0.60
2023-05-10T02:21:16.327Z,0.70
2023-05-10T02:23:39.303Z,0.60
2023-05-10T02:26:01.719Z,0.60
2023-05-10T02:28:23.596Z,0.60
2023-05-10T02:30:45.107Z,0.70
2023-05-10T02:33:07.359Z,0.60
2023-05-10T02:35:29.445Z,0.83
2023-05-10T02:37:50.834Z,0.67
2023-05-10T02:40:14.901Z,0.87
2023-05-10T02:42:37.899Z,0.80
2023-05-10T02:45:01.433Z,0.73
2023-05-10T02:47:22.761Z,0.77
2023-05-10T02:49:44.951Z,0.70
2023-05-10T02:52:07.993Z,0.80
2023-05-10T02:54:31.437Z,1.00
2023-05-10T02:56:57.875Z,1.00
2023-05-10T02:59:19.146Z,1.00
2023-05-10T03:01:40.602Z,1.10
2023-05-10T03:04:01.962Z,1.10
2023-05-10T03:06:23.167Z,1.03
2023-05-10T03:08:45.054Z,0.80
2023-05-10T03:11:20.307Z,0.70
2023-05-10T03:13:46.591Z,0.87
2023-05-10T03:16:10.156Z,1.00
2023-05-10T03:18:35.931Z,1.00
2023-05-10T03:20:59.700Z,1.00
2023-05-10T03:23:23.645Z,1.00
2023-05-10T03:25:45.877Z,1.10
2023-05-10T03:28:07.230Z,0.80
2023-05-10T03:30:30.188Z,0.93
2023-05-10T03:32:51.728Z,0.90
2023-05-10T03:35:14.246Z,0.90
2023-05-10T03:37:35.329Z,0.80
2023-05-10T03:39:56.680Z,0.87
2023-05-10T03:42:18.842Z,1.20
2023-05-10T03:44:39.962Z,1.10
2023-05-10T03:47:02.655Z,0.90
2023-05-10T03:49:24.057Z,0.97
2023-05-10T03:51:45.542Z,1.30
2023-05-10T03:54:07.326Z,1.30
2023-05-10T03:56:28.950Z,1.00
2023-05-10T03:58:50.309Z,0.87
2023-05-10T04:01:12.511Z,1.20
2023-05-10T04:03:36.587Z,1.27
2023-05-10T04:06:01.983Z,1.03
2023-05-10T04:08:23.445Z,1.00
2023-05-10T04:10:44.955Z,1.10
2023-05-10T04:13:06.509Z,1.10
2023-05-10T04:15:27.980Z,1.10
2023-05-10T04:17:49.635Z,1.30
2023-05-10T04:20:13.031Z,1.40
2023-05-10T04:22:34.325Z,1.03
2023-05-10T04:24:55.757Z,1.03
2023-05-10T04:27:17.331Z,1.07
2023-05-10T04:29:39.355Z,1.10
2023-05-10T04:32:00.386Z,1.50
2023-05-10T04:34:22.520Z,1.30
2023-05-10T04:36:44.860Z,1.33
2023-05-10T04:39:06.319Z,1.30
2023-05-10T04:41:27.643Z,1.30
2023-05-10T04:43:50.114Z,1.60
2023-05-10T04:46:11.704Z,1.40
2023-05-10T04:48:33.089Z,1.30
2023-05-10T04:50:54.522Z,1.37
2023-05-10T04:53:17.296Z,1.43
2023-05-10T04:55:39.267Z,1.30
2023-05-10T04:58:01.600Z,1.30
2023-05-10T05:00:22.886Z,1.30
2023-05-10T05:02:44.752Z,1.60
2023-05-10T05:05:06.544Z,1.33
2023-05-10T05:07:28.231Z,1.70
2023-05-10T05:09:50.584Z,1.53
2023-05-10T05:12:14.958Z,1.50
2023-05-10T05:14:36.217Z,1.40
2023-05-10T05:16:58.209Z,1.20
2023-05-10T05:19:19.708Z,1.43
2023-05-10T05:21:41.801Z,1.40
2023-05-10T05:24:02.892Z,1.30
2023-05-10T05:26:25.511Z,1.60
2023-05-10T05:28:46.875Z,1.53
2023-05-10T05:31:08.785Z,1.50
2023-05-10T05:33:29.942Z,1.50
2023-05-10T05:35:51.813Z,1.40
2023-05-10T05:38:12.851Z,1.47
2023-05-10T05:40:34.263Z,1.47
2023-05-10T05:42:57.171Z,1.60
2023-05-10T05:45:19.003Z,1.50
2023-05-10T05:47:40.520Z,1.80
2023-05-10T05:50:01.793Z,1.80
2023-05-10T05:52:23.261Z,2.40
2023-05-10T05:54:44.835Z,2.00
2023-05-10T05:57:06.325Z,2.30
2023-05-10T05:59:29.150Z,2.30
2023-05-10T06:01:50.542Z,2.27
2023-05-10T06:04:11.868Z,2.13
2023-05-10T06:08:54.599Z,2.37
2023-05-10T06:11:15.902Z,1.80
2023-05-10T06:13:37.112Z,1.77
2023-05-10T06:15:59.905Z,1.80
2023-05-10T06:18:20.928Z,1.80
2023-05-10T06:20:43.312Z,1.80
2023-05-10T06:23:04.701Z,1.73
2023-05-10T06:25:26.164Z,1.83
2023-05-10T06:27:51.738Z,1.70
2023-05-10T06:30:16.204Z,1.90
2023-05-10T06:32:38.857Z,1.50
2023-05-10T06:34:59.826Z,2.07
2023-05-10T06:37:21.414Z,1.60
2023-05-10T06:39:42.837Z,1.80
2023-05-10T06:42:05.574Z,1.80
2023-05-10T06:44:26.724Z,1.63
2023-05-10T06:46:48.376Z,1.40
2023-05-10T06:49:10.975Z,1.47
2023-05-10T06:51:32.206Z,1.53
2023-05-10T06:53:53.850Z,1.50
2023-05-10T06:56:15.258Z,1.63
2023-05-10T06:58:36.376Z,1.50
2023-05-10T07:01:03.983Z,1.60
2023-05-10T07:03:25.121Z,1.67
2023-05-10T07:05:47.996Z,1.37
2023-05-10T07:08:09.464Z,1.50
2023-05-10T07:10:30.876Z,1.60
2023-05-10T07:12:52.085Z,1.50
2023-05-10T07:15:13.517Z,1.63
2023-05-10T07:17:35.354Z,1.50
2023-05-10T07:19:56.721Z,1.70
2023-05-10T07:22:19.615Z,1.50
2023-05-10T07:24:40.586Z,1.60
2023-05-10T07:27:02.454Z,1.70
2023-05-10T07:29:23.789Z,1.70
2023-05-10T07:31:45.207Z,1.73
2023-05-10T07:34:06.904Z,1.70
2023-05-10T07:36:28.745Z,1.87
2023-05-10T07:38:51.593Z,1.80
2023-05-10T07:41:13.704Z,1.60
2023-05-10T07:43:35.233Z,1.73
2023-05-10T07:45:58.601Z,1.90
2023-05-10T07:48:19.837Z,1.77
2023-05-10T07:50:41.446Z,1.87
2023-05-10T07:53:02.839Z,1.50
2023-05-10T07:55:25.635Z,1.60
2023-05-10T07:57:46.912Z,1.60
2023-05-10T08:00:08.944Z,1.50
2023-05-10T08:02:30.432Z,1.50
2023-05-10T08:04:51.839Z,1.83
2023-05-10T08:07:13.172Z,1.50
2023-05-10T08:09:34.429Z,1.83
2023-05-10T08:11:57.440Z,1.50
2023-05-10T08:14:19.158Z,1.40
2023-05-10T08:16:40.532Z,1.37
2023-05-10T08:19:02.005Z,1.47
2023-05-10T08:21:23.143Z,1.50
2023-05-10T08:23:45.287Z,1.33
2023-05-10T08:26:06.822Z,1.50
2023-05-10T08:28:29.446Z,1.30
2023-05-10T08:30:51.604Z,1.17
2023-05-10T08:33:12.792Z,1.40
2023-05-10T08:35:36.171Z,1.30
2023-05-10T08:37:57.412Z,1.37
2023-05-10T08:40:21.061Z,1.50
2023-05-10T08:42:44.128Z,1.20
2023-05-10T08:45:07.316Z,1.40
2023-05-10T08:47:30.943Z,1.20
2023-05-10T08:49:52.758Z,1.20
2023-05-10T08:52:15.170Z,1.30
2023-05-10T08:54:37.107Z,1.40
2023-05-10T08:56:58.431Z,1.20
2023-05-10T08:59:19.861Z,1.20
2023-05-10T09:01:45.086Z,1.33
2023-05-10T09:04:06.154Z,1.10
2023-05-10T09:06:27.642Z,1.30
2023-05-10T09:08:49.018Z,1.20
2023-05-10T09:11:10.695Z,1.27
2023-05-10T09:13:32.014Z,1.60
2023-05-10T09:15:53.527Z,1.10
2023-05-10T09:18:16.463Z,1.17
2023-05-10T09:20:38.210Z,1.10
2023-05-10T09:22:59.765Z,1.20
2023-05-10T09:25:21.110Z,1.33
2023-05-10T09:27:43.052Z,1.30
2023-05-10T09:30:04.860Z,1.37
2023-05-10T09:32:37.786Z,1.10
2023-05-10T09:35:08.198Z,1.13
2023-05-10T09:37:31.710Z,1.30
2023-05-10T09:39:56.465Z,1.20
2023-05-10T09:42:20.258Z,1.50
2023-05-10T09:44:41.986Z,1.10
2023-05-10T09:47:03.241Z,1.30
2023-05-10T09:49:24.513Z,1.23
2023-05-10T09:51:47.063Z,1.37
2023-05-10T09:54:12.749Z,1.17
2023-05-10T09:56:38.643Z,1.07
2023-05-10T09:59:04.245Z,1.00
2023-05-10T10:01:28.328Z,1.00
2023-05-10T10:03:51.990Z,1.10
2023-05-10T10:06:26.376Z,1.00
2023-05-10T10:08:54.416Z,1.10
2023-05-10T10:11:17.130Z,1.10
2023-05-10T10:13:39.015Z,1.27
2023-05-10T10:16:00.315Z,1.30
2023-05-10T10:18:24.812Z,1.07
2023-05-10T10:20:46.076Z,1.13
2023-05-10T10:23:07.409Z,1.00
2023-05-10T10:25:30.346Z,1.07
2023-05-10T10:27:59.427Z,1.27
2023-05-10T10:30:25.808Z,1.00
2023-05-10T10:32:57.758Z,1.10
2023-05-10T10:35:19.571Z,1.20
2023-05-10T10:37:46.126Z,1.10
2023-05-10T10:40:24.509Z,1.00
2023-05-10T10:42:50.995Z,1.13
2023-05-10T10:45:15.457Z,1.40
2023-05-10T10:47:38.503Z,1.10
2023-05-10T10:50:06.833Z,1.20
2023-05-10T10:52:30.939Z,1.20
2023-05-10T10:54:53.272Z,1.10
2023-05-10T10:57:15.558Z,1.23
2023-05-10T10:59:38.366Z,1.20
2023-05-10T11:02:01.279Z,1.20
2023-05-10T11:04:22.434Z,1.30
2023-05-10T11:06:44.589Z,1.00
2023-05-10T11:09:07.837Z,1.10
2023-05-10T11:11:28.943Z,1.00
2023-05-10T11:13:51.381Z,1.03
2023-05-10T11:16:18.963Z,1.03
2023-05-10T11:18:40.482Z,1.00
2023-05-10T11:21:03.817Z,1.07
2023-05-10T11:23:25.708Z,1.50
2023-05-10T11:25:47.323Z,1.30
2023-05-10T11:28:08.499Z,1.50
2023-05-10T11:30:29.769Z,1.30
2023-05-10T11:32:52.720Z,1.30
2023-05-10T11:35:14.432Z,1.40
2023-05-10T11:37:35.728Z,1.63
2023-05-10T11:39:57.285Z,1.40
2023-05-10T11:42:19.066Z,1.50
2023-05-10T11:44:41.760Z,1.27
2023-05-10T11:47:04.083Z,1.00
2023-05-10T11:49:28.020Z,1.10
2023-05-10T11:51:49.455Z,1.13
2023-05-10T11:54:11.205Z,1.10
2023-05-10T11:56:34.716Z,1.30
2023-05-10T11:58:56.674Z,1.30
2023-05-10T12:01:17.977Z,1.30
2023-05-10T12:03:39.860Z,1.10
2023-05-10T12:06:02.995Z,1.37
2023-05-10T12:08:25.365Z,1.40
2023-05-10T12:10:46.901Z,1.00
2023-05-10T12:13:12.774Z,1.50
2023-05-10T12:15:33.968Z,1.30
2023-05-10T12:17:55.837Z,1.30
2023-05-10T12:20:18.582Z,1.70
2023-05-10T12:22:41.477Z,1.60
2023-05-10T12:25:02.723Z,1.60
2023-05-10T12:27:24.237Z,1.57
2023-05-10T12:29:46.036Z,1.97
2023-05-10T12:32:07.216Z,1.90
2023-05-10T12:34:29.106Z,2.10
2023-05-10T12:36:52.205Z,2.03
2023-05-10T12:39:14.521Z,2.13
2023-05-10T12:41:35.878Z,2.00
2023-05-10T12:43:57.559Z,1.70
2023-05-10T12:46:19.591Z,1.90
2023-05-10T12:48:42.095Z,1.43
2023-05-10T12:51:03.982Z,1.73
2023-05-10T12:53:25.266Z,1.47
2023-05-10T12:55:47.997Z,1.50
2023-05-10T12:58:09.198Z,1.50
2023-05-10T13:00:30.374Z,1.50
2023-05-10T13:02:51.928Z,1.43
2023-05-10T13:05:14.182Z,1.47
2023-05-10T13:07:35.391Z,1.80
2023-05-10T13:09:56.696Z,1.87
2023-05-10T13:12:19.294Z,2.10
2023-05-10T13:14:41.503Z,1.90
2023-05-10T13:17:03.018Z,2.10
2023-05-10T13:19:24.253Z,2.20
2023-05-10T13:21:45.961Z,2.30
2023-05-10T13:24:07.201Z,2.40
2023-05-10T13:26:29.103Z,2.30
2023-05-10T13:28:52.816Z,2.20
2023-05-10T13:31:14.563Z,2.10
2023-05-10T13:33:35.849Z,1.67
2023-05-10T13:35:57.194Z,1.87
2023-05-10T13:38:20.396Z,1.87
2023-05-10T13:40:42.832Z,1.80
2023-05-10T13:43:04.237Z,1.70
2023-05-10T13:45:27.058Z,1.50
2023-05-10T13:47:48.210Z,1.67
2023-05-10T13:50:09.828Z,1.60
2023-05-10T13:52:31.252Z,1.70
2023-05-10T13:54:55.875Z,1.50
2023-05-10T13:57:17.847Z,1.83
2023-05-10T13:59:39.175Z,1.70
2023-05-10T14:02:03.516Z,1.43
2023-05-10T14:04:24.923Z,1.50
2023-05-10T14:06:46.291Z,1.90
2023-05-10T14:09:07.796Z,1.50
2023-05-10T14:11:29.385Z,1.40
2023-05-10T14:13:50.514Z,1.90
2023-05-10T14:16:12.658Z,1.70
2023-05-10T14:18:35.553Z,1.90
2023-05-10T14:20:56.791Z,3.60
2023-05-10T14:23:18.193Z,1.80
2023-05-10T14:25:39.927Z,1.50
2023-05-10T14:28:01.051Z,1.70
2023-05-10T14:30:22.574Z,1.40
2023-05-10T14:32:43.824Z,1.37
2023-05-10T14:35:06.997Z,1.40
2023-05-10T14:37:28.810Z,1.37
2023-05-10T14:39:49.919Z,1.70
2023-05-10T14:42:11.272Z,1.50
2023-05-10T14:44:32.859Z,1.50
2023-05-10T14:46:54.130Z,1.43
2023-05-10T14:49:15.679Z,1.40
2023-05-10T14:51:39.516Z,1.50
2023-05-10T14:54:01.038Z,1.60
2023-05-10T14:56:23.136Z,1.50
2023-05-10T14:58:44.701Z,1.43
2023-05-10T15:01:06.479Z,1.43
2023-05-10T15:03:27.990Z,1.70
2023-05-10T15:05:49.967Z,1.50
2023-05-10T15:08:13.624Z,1.60
2023-05-10T15:10:35.214Z,1.60
2023-05-10T15:12:56.551Z,1.70
2023-05-10T15:15:18.549Z,1.70
2023-05-10T15:17:39.836Z,1.53
2023-05-10T15:20:01.293Z,1.40
2023-05-10T15:22:23.232Z,1.40
2023-05-10T15:24:45.954Z,1.40
2023-05-10T15:27:07.447Z,1.73
2023-05-10T15:29:28.827Z,1.50
2023-05-10T15:31:50.765Z,1.40
2023-05-10T15:34:12.602Z,1.50
2023-05-10T15:36:33.859Z,1.60
2023-05-10T15:38:55.636Z,1.50
2023-05-10T15:41:18.411Z,1.70
2023-05-10T15:43:39.500Z,1.43
2023-05-10T15:46:00.914Z,1.50
2023-05-10T15:48:22.223Z,1.80
2023-05-10T15:50:43.744Z,1.70
2023-05-10T15:53:05.154Z,1.50
2023-05-10T15:55:27.768Z,1.60
2023-05-10T15:57:51.386Z,1.47
2023-05-10T16:00:13.469Z,1.50
2023-05-10T16:02:35.480Z,1.57
2023-05-10T16:04:56.685Z,1.63
2023-05-10T16:07:18.000Z,1.50
2023-05-10T16:09:39.413Z,1.60
2023-05-10T16:12:00.738Z,1.73
2023-05-10T16:14:24.731Z,1.70
2023-05-10T16:16:46.142Z,1.50
2023-05-10T16:19:07.748Z,1.60
2023-05-10T16:21:29.625Z,1.70
2023-05-10T16:23:51.044Z,1.40
2023-05-10T16:26:12.504Z,1.90
2023-05-10T16:28:33.980Z,1.93
2023-05-10T16:30:56.346Z,1.80
2023-05-10T16:33:17.673Z,1.70
2023-05-10T16:35:39.708Z,1.70
2023-05-10T16:38:01.156Z,2.07
2023-05-10T16:40:22.255Z,1.70
2023-05-10T16:42:43.667Z,1.90
2023-05-10T16:45:07.716Z,1.63
2023-05-10T16:47:30.281Z,1.80
2023-05-10T16:49:51.345Z,2.00
2023-05-10T16:52:12.956Z,1.70
2023-05-10T16:54:34.520Z,1.80
2023-05-10T16:56:55.860Z,1.80
2023-05-10T16:59:17.475Z,1.83
2023-05-10T17:01:38.942Z,1.90
2023-05-10T17:04:02.121Z,1.73
2023-05-10T17:06:23.452Z,1.87
2023-05-10T17:08:45.513Z,1.80
2023-05-10T17:11:06.600Z,2.03
2023-05-10T17:13:27.947Z,1.77
2023-05-10T17:15:49.158Z,1.67
2023-05-10T17:18:11.283Z,1.83
2023-05-10T17:20:33.742Z,2.03
2023-05-10T17:22:55.178Z,1.80
2023-05-10T17:25:16.834Z,1.60
2023-05-10T17:27:38.778Z,1.90
2023-05-10T17:29:59.951Z,1.87
2023-05-10T17:32:21.329Z,1.80
2023-05-10T17:34:42.886Z,1.70
2023-05-10T17:37:05.978Z,1.90
2023-05-10T17:39:27.110Z,1.80
2023-05-10T17:41:48.407Z,1.80
2023-05-10T17:44:09.591Z,1.70
2023-05-10T17:46:30.911Z,1.50
2023-05-10T17:48:52.348Z,1.77
2023-05-10T17:51:13.743Z,1.77
2023-05-10T17:53:36.288Z,1.90
2023-05-10T17:55:59.016Z,1.80
2023-05-10T17:58:19.952Z,1.80
2023-05-10T18:00:41.489Z,1.80
2023-05-10T18:03:03.550Z,2.10
2023-05-10T18:05:25.328Z,2.00
2023-05-10T18:07:47.049Z,2.10
2023-05-10T18:10:10.434Z,2.00
2023-05-10T18:12:31.812Z,2.17
2023-05-10T18:14:53.139Z,2.00
2023-05-10T18:17:15.220Z,1.80
2023-05-10T18:19:36.602Z,2.60
2023-05-10T18:21:57.962Z,2.20
2023-05-10T18:24:26.507Z,2.30
2023-05-10T18:27:01.407Z,2.30
2023-05-10T18:29:24.054Z,2.20
2023-05-10T18:31:45.202Z,2.17
2023-05-10T18:34:06.712Z,2.47
2023-05-10T18:36:28.265Z,2.53
2023-05-10T18:38:49.672Z,2.33
2023-05-10T18:41:12.460Z,1.90
2023-05-10T18:43:34.926Z,2.00
2023-05-10T18:45:55.924Z,2.10
2023-05-10T18:48:17.258Z,2.10
2023-05-10T18:50:38.592Z,1.80
2023-05-10T18:52:59.956Z,1.90
2023-05-10T18:55:21.554Z,1.70
2023-05-10T18:57:43.574Z,1.87
2023-05-10T19:00:07.266Z,2.20
2023-05-10T19:02:28.579Z,1.97
2023-05-10T19:04:50.297Z,1.70
2023-05-10T19:07:11.572Z,1.90
2023-05-10T19:09:32.989Z,1.60
2023-05-10T19:11:54.324Z,2.13
2023-05-10T19:14:15.685Z,2.10
2023-05-10T19:16:38.431Z,2.10
2023-05-10T19:19:01.838Z,1.60
2023-05-10T19:21:25.690Z,1.90
2023-05-10T19:23:47.102Z,1.90
2023-05-10T19:26:10.008Z,2.00
2023-05-10T19:28:31.313Z,2.30
2023-05-10T19:30:52.902Z,1.80
2023-05-10T19:33:15.477Z,2.13
2023-05-10T19:35:36.634Z,1.90
2023-05-10T19:37:57.987Z,2.00
2023-05-10T19:40:19.708Z,1.80
2023-05-10T19:42:41.405Z,2.10
2023-05-10T19:45:02.427Z,1.87
2023-05-10T19:47:23.693Z,2.00
2023-05-10T19:49:46.608Z,2.30
2023-05-10T19:52:10.542Z,1.90
2023-05-10T19:54:32.277Z,2.00
2023-05-10T19:56:54.337Z,1.97
2023-05-10T19:59:16.037Z,2.07
2023-05-10T20:01:37.813Z,1.97
2023-05-10T20:03:58.929Z,1.90
2023-05-10T20:06:21.573Z,2.30
2023-05-10T20:08:42.999Z,2.00
2023-05-10T20:11:04.299Z,1.90
2023-05-10T20:13:25.703Z,2.20
2023-05-10T20:15:47.008Z,2.00
2023-05-10T20:18:08.454Z,2.00
2023-05-10T20:20:30.233Z,1.97
2023-05-10T20:22:53.239Z,1.83
2023-05-10T20:25:14.682Z,2.10
2023-05-10T20:27:35.962Z,1.70
2023-05-10T20:29:57.425Z,1.67
2023-05-10T20:32:18.947Z,1.60
2023-05-10T20:34:40.094Z,1.60
2023-05-10T20:37:02.519Z,1.87
2023-05-10T20:39:25.201Z,1.67
2023-05-10T20:41:47.026Z,1.60
2023-05-10T20:44:08.475Z,1.73
2023-05-10T20:46:30.391Z,2.10
2023-05-10T20:48:52.277Z,1.90
2023-05-10T20:51:14.067Z,1.93
2023-05-10T20:53:35.174Z,1.83
2023-05-10T20:55:58.102Z,1.80
2023-05-10T20:58:19.531Z,1.80
2023-05-10T21:00:41.648Z,1.90
2023-05-10T21:03:03.203Z,2.00
2023-05-10T21:05:24.612Z,2.20
2023-05-10T21:07:46.084Z,2.20
2023-05-10T21:10:08.289Z,1.77
2023-05-10T21:12:31.180Z,1.73
2023-05-10T21:14:53.975Z,1.60
2023-05-10T21:17:15.083Z,1.50
2023-05-10T21:19:36.516Z,1.67
2023-05-10T21:21:59.722Z,1.70
2023-05-10T21:24:21.130Z,1.77
2023-05-10T21:26:43.398Z,1.70
2023-05-10T21:29:06.378Z,1.60
2023-05-10T21:31:28.061Z,1.50
2023-05-10T21:33:49.325Z,1.80
2023-05-10T21:36:10.544Z,1.70
2023-05-10T21:38:32.068Z,1.90
2023-05-10T21:40:53.034Z,1.80
2023-05-10T21:43:14.303Z,1.77
2023-05-10T21:45:37.358Z,1.77
2023-05-10T21:47:58.841Z,1.70
2023-05-10T21:50:20.432Z,2.00
2023-05-10T21:52:41.708Z,1.80
2023-05-10T21:55:03.298Z,1.70
2023-05-10T21:57:25.579Z,1.73
2023-05-10T21:59:46.955Z,1.50
2023-05-10T22:02:09.589Z,1.70
2023-05-10T22:04:30.862Z,1.53
2023-05-10T22:06:52.285Z,1.57
2023-05-10T22:09:13.776Z,1.70
2023-05-10T22:11:35.114Z,1.57
2023-05-10T22:13:56.631Z,1.60
2023-05-10T22:16:17.844Z,1.70
2023-05-10T22:18:40.885Z,1.60
2023-05-10T22:21:02.440Z,2.00
2023-05-10T22:23:23.901Z,1.77
2023-05-10T22:25:45.279Z,1.80
2023-05-10T22:28:07.485Z,1.70
2023-05-10T22:30:30.403Z,1.90
2023-05-10T22:32:52.766Z,2.07
2023-05-10T22:35:15.339Z,1.83
2023-05-10T22:37:36.575Z,1.90
2023-05-10T22:39:57.739Z,1.97
2023-05-10T22:42:19.011Z,2.00
2023-05-10T22:44:40.250Z,1.97
2023-05-10T22:47:01.549Z,1.80
2023-05-10T22:49:22.871Z,1.80
2023-05-10T22:51:45.609Z,2.10
2023-05-10T22:54:07.224Z,1.63
2023-05-10T22:56:28.674Z,1.80
2023-05-10T22:58:50.319Z,2.00
2023-05-10T23:01:11.559Z,2.00
2023-05-10T23:03:33.162Z,1.93
2023-05-10T23:05:54.398Z,2.23
2023-05-10T23:08:17.202Z,2.10
2023-05-10T23:10:39.254Z,2.10
2023-05-10T23:13:00.632Z,1.63
2023-05-10T23:15:22.063Z,2.00
2023-05-10T23:17:43.303Z,1.90
2023-05-10T23:20:05.158Z,2.00
2023-05-10T23:22:26.566Z,1.87
2023-05-10T23:24:49.059Z,2.00
2023-05-10T23:27:11.435Z,1.70
2023-05-10T23:29:34.632Z,1.90
2023-05-10T23:31:55.963Z,2.00
2023-05-10T23:34:17.580Z,1.87
2023-05-10T23:36:38.837Z,1.93
2023-05-10T23:38:59.970Z,2.00
2023-05-10T23:41:23.056Z,1.90
2023-05-10T23:43:44.286Z,1.87
2023-05-10T23:46:05.916Z,1.80
2023-05-10T23:48:27.322Z,2.00
2023-05-10T23:50:48.656Z,2.00
2023-05-10T23:53:09.771Z,1.70
2023-05-10T23:55:31.003Z,1.90
2023-05-10T23:57:54.050Z,1.80
